sensor_id;sensor_type;location;lat;lon;timestamp;temperature;humidity
57564;DHT22;43400;45.926;6.724;2023-01-28T00:00:11;-2.10;92.50
57564;DHT22;43400;45.926;6.724;2023-01-28T00:02:42;-2.20;93.00
57564;DHT22;43400;45.926;6.724;2023-01-28T00:05:15;-2.10;93.10
57564;DHT22;43400;45.926;6.724;2023-01-28T00:07:51;-2.10;92.70
57564;DHT22;43400;45.926;6.724;2023-01-28T00:10:22;-2.10;92.50
57564;DHT22;43400;45.926;6.724;2023-01-28T00:12:54;-2.10;92.50
57564;DHT22;43400;45.926;6.724;2023-01-28T00:15:26;-2.20;92.50
57564;DHT22;43400;45.926;6.724;2023-01-28T00:17:58;-2.20;92.90
57564;DHT22;43400;45.926;6.724;2023-01-28T00:20:31;-2.20;93.00
57564;DHT22;43400;45.926;6.724;2023-01-28T00:23:03;-2.20;93.20
57564;DHT22;43400;45.926;6.724;2023-01-28T00:25:35;-2.20;93.00
57564;DHT22;43400;45.926;6.724;2023-01-28T00:28:07;-2.20;93.20
57564;DHT22;43400;45.926;6.724;2023-01-28T00:30:39;-2.30;93.40
57564;DHT22;43400;45.926;6.724;2023-01-28T00:33:11;-2.10;93.30
57564;DHT22;43400;45.926;6.724;2023-01-28T00:35:43;-2.10;93.20
57564;DHT22;43400;45.926;6.724;2023-01-28T00:38:15;-2.10;93.20
57564;DHT22;43400;45.926;6.724;2023-01-28T00:40:49;-2.10;93.50
57564;DHT22;43400;45.926;6.724;2023-01-28T00:43:22;-2.20;93.20
57564;DHT22;43400;45.926;6.724;2023-01-28T00:45:54;-2.20;93.00
57564;DHT22;43400;45.926;6.724;2023-01-28T00:48:26;-2.20;92.80
57564;DHT22;43400;45.926;6.724;2023-01-28T00:50:58;-2.20;92.80
57564;DHT22;43400;45.926;6.724;2023-01-28T00:53:30;-2.20;93.10
57564;DHT22;43400;45.926;6.724;2023-01-28T00:56:03;-2.10;93.10
57564;DHT22;43400;45.926;6.724;2023-01-28T00:58:36;-2.10;93.10
57564;DHT22;43400;45.926;6.724;2023-01-28T01:01:24;-2.10;93.00
57564;DHT22;43400;45.926;6.724;2023-01-28T01:03:56;-2.10;93.00
57564;DHT22;43400;45.926;6.724;2023-01-28T01:06:31;-2.10;92.80
57564;DHT22;43400;45.926;6.724;2023-01-28T01:09:06;-2.20;93.20
57564;DHT22;43400;45.926;6.724;2023-01-28T01:11:38;-2.30;93.70
57564;DHT22;43400;45.926;6.724;2023-01-28T01:14:10;-2.20;94.00
57564;DHT22;43400;45.926;6.724;2023-01-28T01:16:42;-2.20;93.90
57564;DHT22;43400;45.926;6.724;2023-01-28T01:19:14;-2.10;93.70
57564;DHT22;43400;45.926;6.724;2023-01-28T01:21:46;-2.10;93.20
57564;DHT22;43400;45.926;6.724;2023-01-28T01:24:18;-2.10;93.00
57564;DHT22;43400;45.926;6.724;2023-01-28T01:26:50;-2.20;92.80
57564;DHT22;43400;45.926;6.724;2023-01-28T01:29:23;-2.10;93.00
57564;DHT22;43400;45.926;6.724;2023-01-28T01:31:55;-2.20;93.20
57564;DHT22;43400;45.926;6.724;2023-01-28T01:34:27;-2.20;93.40
57564;DHT22;43400;45.926;6.724;2023-01-28T01:37:00;-2.20;93.60
57564;DHT22;43400;45.926;6.724;2023-01-28T01:39:33;-2.20;93.70
57564;DHT22;43400;45.926;6.724;2023-01-28T01:42:07;-2.10;93.70
57564;DHT22;43400;45.926;6.724;2023-01-28T01:50:32;-2.10;93.10
57564;DHT22;43400;45.926;6.724;2023-01-28T01:53:15;-2.00;93.00
57564;DHT22;43400;45.926;6.724;2023-01-28T01:55:49;-2.00;92.90
57564;DHT22;43400;45.926;6.724;2023-01-28T01:58:26;-2.00;92.80
57564;DHT22;43400;45.926;6.724;2023-01-28T02:00:59;-2.00;92.70
57564;DHT22;43400;45.926;6.724;2023-01-28T02:06:14;-1.90;92.70
57564;DHT22;43400;45.926;6.724;2023-01-28T02:08:45;-1.90;92.50
57564;DHT22;43400;45.926;6.724;2023-01-28T02:11:17;-2.00;92.90
57564;DHT22;43400;45.926;6.724;2023-01-28T02:13:53;-2.00;93.00
57564;DHT22;43400;45.926;6.724;2023-01-28T02:16:25;-2.00;93.10
57564;DHT22;43400;45.926;6.724;2023-01-28T02:18:58;-1.90;93.20
57564;DHT22;43400;45.926;6.724;2023-01-28T02:24:53;-1.90;93.30
57564;DHT22;43400;45.926;6.724;2023-01-28T02:30:14;-1.90;93.10
57564;DHT22;43400;45.926;6.724;2023-01-28T02:33:12;-1.90;93.10
57564;DHT22;43400;45.926;6.724;2023-01-28T02:35:52;-1.90;93.00
57564;DHT22;43400;45.926;6.724;2023-01-28T02:38:34;-1.80;93.00
57564;DHT22;43400;45.926;6.724;2023-01-28T02:41:13;-1.80;92.90
57564;DHT22;43400;45.926;6.724;2023-01-28T02:43:46;-1.90;93.00
57564;DHT22;43400;45.926;6.724;2023-01-28T02:48:57;-1.90;93.70
57564;DHT22;43400;45.926;6.724;2023-01-28T02:51:49;-1.90;93.60
57564;DHT22;43400;45.926;6.724;2023-01-28T02:55:08;-1.90;93.40
57564;DHT22;43400;45.926;6.724;2023-01-28T02:58:01;-1.80;93.10
57564;DHT22;43400;45.926;6.724;2023-01-28T03:06:14;-1.90;93.50
57564;DHT22;43400;45.926;6.724;2023-01-28T03:08:58;-1.90;93.40
57564;DHT22;43400;45.926;6.724;2023-01-28T03:11:35;-1.90;93.60
57564;DHT22;43400;45.926;6.724;2023-01-28T03:14:09;-1.80;93.80
57564;DHT22;43400;45.926;6.724;2023-01-28T03:16:41;-1.80;93.80
57564;DHT22;43400;45.926;6.724;2023-01-28T03:19:13;-1.80;93.80
57564;DHT22;43400;45.926;6.724;2023-01-28T03:21:44;-1.80;93.80
57564;DHT22;43400;45.926;6.724;2023-01-28T03:24:30;-1.70;93.70
57564;DHT22;43400;45.926;6.724;2023-01-28T03:27:28;-1.70;93.60
57564;DHT22;43400;45.926;6.724;2023-01-28T03:30:00;-1.80;93.70
57564;DHT22;43400;45.926;6.724;2023-01-28T03:32:34;-1.90;94.10
57564;DHT22;43400;45.926;6.724;2023-01-28T03:35:07;-1.90;94.50
57564;DHT22;43400;45.926;6.724;2023-01-28T03:37:41;-1.90;94.70
57564;DHT22;43400;45.926;6.724;2023-01-28T03:40:13;-1.90;94.80
57564;DHT22;43400;45.926;6.724;2023-01-28T03:42:44;-2.00;94.60
57564;DHT22;43400;45.926;6.724;2023-01-28T03:45:17;-1.90;94.60
57564;DHT22;43400;45.926;6.724;2023-01-28T03:47:48;-1.90;94.20
57564;DHT22;43400;45.926;6.724;2023-01-28T03:50:20;-1.80;94.10
57564;DHT22;43400;45.926;6.724;2023-01-28T03:52:52;-1.90;94.00
57564;DHT22;43400;45.926;6.724;2023-01-28T03:55:23;-1.80;94.10
57564;DHT22;43400;45.926;6.724;2023-01-28T03:57:55;-1.80;94.00
57564;DHT22;43400;45.926;6.724;2023-01-28T04:00:27;-1.90;94.30
57564;DHT22;43400;45.926;6.724;2023-01-28T04:02:58;-1.90;94.30
57564;DHT22;43400;45.926;6.724;2023-01-28T04:05:30;-2.00;94.40
57564;DHT22;43400;45.926;6.724;2023-01-28T04:08:02;-2.00;94.70
57564;DHT22;43400;45.926;6.724;2023-01-28T04:10:33;-2.00;94.60
57564;DHT22;43400;45.926;6.724;2023-01-28T04:13:06;-2.00;94.80
57564;DHT22;43400;45.926;6.724;2023-01-28T04:15:38;-1.90;94.70
57564;DHT22;43400;45.926;6.724;2023-01-28T04:18:09;-1.90;94.40
57564;DHT22;43400;45.926;6.724;2023-01-28T04:20:41;-2.00;94.20
57564;DHT22;43400;45.926;6.724;2023-01-28T04:23:13;-2.00;94.30
57564;DHT22;43400;45.926;6.724;2023-01-28T04:25:45;-2.00;94.40
57564;DHT22;43400;45.926;6.724;2023-01-28T04:28:20;-2.10;94.60
57564;DHT22;43400;45.926;6.724;2023-01-28T04:30:52;-2.10;94.90
57564;DHT22;43400;45.926;6.724;2023-01-28T04:33:24;-2.10;94.70
57564;DHT22;43400;45.926;6.724;2023-01-28T04:35:55;-2.10;95.10
57564;DHT22;43400;45.926;6.724;2023-01-28T04:38:27;-2.00;94.80
57564;DHT22;43400;45.926;6.724;2023-01-28T04:40:59;-2.00;94.60
57564;DHT22;43400;45.926;6.724;2023-01-28T04:43:31;-1.90;94.80
57564;DHT22;43400;45.926;6.724;2023-01-28T04:46:02;-1.90;94.70
57564;DHT22;43400;45.926;6.724;2023-01-28T04:48:34;-1.90;94.50
57564;DHT22;43400;45.926;6.724;2023-01-28T04:51:06;-1.90;94.60
57564;DHT22;43400;45.926;6.724;2023-01-28T04:53:38;-1.80;94.50
57564;DHT22;43400;45.926;6.724;2023-01-28T04:56:09;-1.90;94.40
57564;DHT22;43400;45.926;6.724;2023-01-28T04:58:41;-2.00;94.80
57564;DHT22;43400;45.926;6.724;2023-01-28T05:01:13;-1.90;94.90
57564;DHT22;43400;45.926;6.724;2023-01-28T05:03:45;-1.90;94.70
57564;DHT22;43400;45.926;6.724;2023-01-28T05:06:16;-1.80;94.60
57564;DHT22;43400;45.926;6.724;2023-01-28T05:08:48;-1.90;94.60
57564;DHT22;43400;45.926;6.724;2023-01-28T05:11:20;-1.80;94.50
57564;DHT22;43400;45.926;6.724;2023-01-28T05:13:53;-1.80;94.40
57564;DHT22;43400;45.926;6.724;2023-01-28T05:16:25;-1.90;94.50
57564;DHT22;43400;45.926;6.724;2023-01-28T05:18:57;-2.00;94.60
57564;DHT22;43400;45.926;6.724;2023-01-28T05:21:29;-2.10;95.00
57564;DHT22;43400;45.926;6.724;2023-01-28T05:24:01;-2.10;95.30
57564;DHT22;43400;45.926;6.724;2023-01-28T05:26:32;-2.20;95.80
57564;DHT22;43400;45.926;6.724;2023-01-28T05:29:04;-2.20;96.10
57564;DHT22;43400;45.926;6.724;2023-01-28T05:31:35;-2.20;96.30
57564;DHT22;43400;45.926;6.724;2023-01-28T05:34:07;-2.10;96.50
57564;DHT22;43400;45.926;6.724;2023-01-28T05:36:39;-2.00;96.30
57564;DHT22;43400;45.926;6.724;2023-01-28T05:39:11;-1.90;95.90
57564;DHT22;43400;45.926;6.724;2023-01-28T05:41:42;-1.80;95.60
57564;DHT22;43400;45.926;6.724;2023-01-28T05:44:14;-1.80;95.20
57564;DHT22;43400;45.926;6.724;2023-01-28T05:46:46;-1.80;94.90
57564;DHT22;43400;45.926;6.724;2023-01-28T05:49:17;-1.80;94.70
57564;DHT22;43400;45.926;6.724;2023-01-28T05:51:49;-1.80;94.50
57564;DHT22;43400;45.926;6.724;2023-01-28T05:54:21;-1.80;94.40
57564;DHT22;43400;45.926;6.724;2023-01-28T05:56:53;-1.80;94.40
57564;DHT22;43400;45.926;6.724;2023-01-28T05:59:25;-1.80;94.30
57564;DHT22;43400;45.926;6.724;2023-01-28T06:01:57;-1.80;94.60
57564;DHT22;43400;45.926;6.724;2023-01-28T06:04:29;-1.90;95.00
57564;DHT22;43400;45.926;6.724;2023-01-28T06:07:00;-1.90;95.30
57564;DHT22;43400;45.926;6.724;2023-01-28T06:09:32;-1.90;95.20
57564;DHT22;43400;45.926;6.724;2023-01-28T06:12:04;-2.00;95.20
57564;DHT22;43400;45.926;6.724;2023-01-28T06:14:36;-2.00;95.50
57564;DHT22;43400;45.926;6.724;2023-01-28T06:17:08;-2.10;96.10
57564;DHT22;43400;45.926;6.724;2023-01-28T06:19:40;-2.00;96.20
57564;DHT22;43400;45.926;6.724;2023-01-28T06:22:12;-1.90;95.90
57564;DHT22;43400;45.926;6.724;2023-01-28T06:24:43;-1.90;95.70
57564;DHT22;43400;45.926;6.724;2023-01-28T06:27:15;-1.80;95.50
57564;DHT22;43400;45.926;6.724;2023-01-28T06:29:47;-1.80;95.30
57564;DHT22;43400;45.926;6.724;2023-01-28T06:32:19;-1.90;95.40
57564;DHT22;43400;45.926;6.724;2023-01-28T06:34:51;-2.00;95.90
57564;DHT22;43400;45.926;6.724;2023-01-28T06:37:22;-2.00;96.00
57564;DHT22;43400;45.926;6.724;2023-01-28T06:39:54;-2.00;95.90
57564;DHT22;43400;45.926;6.724;2023-01-28T06:42:25;-2.00;96.10
57564;DHT22;43400;45.926;6.724;2023-01-28T06:44:57;-1.90;95.70
57564;DHT22;43400;45.926;6.724;2023-01-28T06:47:29;-1.90;95.30
57564;DHT22;43400;45.926;6.724;2023-01-28T06:50:01;-1.80;95.50
57564;DHT22;43400;45.926;6.724;2023-01-28T06:52:32;-1.80;95.40
57564;DHT22;43400;45.926;6.724;2023-01-28T06:55:04;-1.80;95.40
57564;DHT22;43400;45.926;6.724;2023-01-28T06:57:37;-1.90;95.30
57564;DHT22;43400;45.926;6.724;2023-01-28T07:00:10;-2.00;95.60
57564;DHT22;43400;45.926;6.724;2023-01-28T07:02:42;-1.90;95.90
57564;DHT22;43400;45.926;6.724;2023-01-28T07:05:14;-2.00;95.80
57564;DHT22;43400;45.926;6.724;2023-01-28T07:07:45;-2.00;96.30
57564;DHT22;43400;45.926;6.724;2023-01-28T07:10:17;-2.10;96.50
57564;DHT22;43400;45.926;6.724;2023-01-28T07:12:49;-2.00;96.60
57564;DHT22;43400;45.926;6.724;2023-01-28T07:15:21;-2.10;96.20
57564;DHT22;43400;45.926;6.724;2023-01-28T07:17:52;-2.10;96.30
57564;DHT22;43400;45.926;6.724;2023-01-28T07:20:24;-2.10;96.50
57564;DHT22;43400;45.926;6.724;2023-01-28T07:22:56;-2.00;96.70
57564;DHT22;43400;45.926;6.724;2023-01-28T07:25:28;-1.90;96.50
57564;DHT22;43400;45.926;6.724;2023-01-28T07:28:00;-1.80;96.30
57564;DHT22;43400;45.926;6.724;2023-01-28T07:30:32;-1.80;96.00
57564;DHT22;43400;45.926;6.724;2023-01-28T07:33:04;-1.80;95.80
57564;DHT22;43400;45.926;6.724;2023-01-28T07:35:35;-1.70;95.50
57564;DHT22;43400;45.926;6.724;2023-01-28T07:38:07;-1.60;95.50
57564;DHT22;43400;45.926;6.724;2023-01-28T07:40:39;-1.60;95.40
57564;DHT22;43400;45.926;6.724;2023-01-28T07:43:11;-1.50;95.40
57564;DHT22;43400;45.926;6.724;2023-01-28T07:45:42;-1.50;95.30
57564;DHT22;43400;45.926;6.724;2023-01-28T07:48:14;-1.60;95.40
57564;DHT22;43400;45.926;6.724;2023-01-28T07:50:46;-1.50;95.50
57564;DHT22;43400;45.926;6.724;2023-01-28T07:53:17;-1.60;95.60
57564;DHT22;43400;45.926;6.724;2023-01-28T07:55:49;-1.60;95.70
57564;DHT22;43400;45.926;6.724;2023-01-28T07:58:21;-1.50;95.50
57564;DHT22;43400;45.926;6.724;2023-01-28T08:00:56;-1.50;95.30
57564;DHT22;43400;45.926;6.724;2023-01-28T08:03:28;-1.50;95.30
57564;DHT22;43400;45.926;6.724;2023-01-28T08:05:59;-1.40;95.20
57564;DHT22;43400;45.926;6.724;2023-01-28T08:08:31;-1.40;95.00
57564;DHT22;43400;45.926;6.724;2023-01-28T08:11:08;-1.30;94.80
57564;DHT22;43400;45.926;6.724;2023-01-28T08:13:40;-1.30;94.70
57564;DHT22;43400;45.926;6.724;2023-01-28T08:16:12;-1.30;94.80
57564;DHT22;43400;45.926;6.724;2023-01-28T08:18:43;-1.30;94.60
57564;DHT22;43400;45.926;6.724;2023-01-28T08:21:15;-1.30;94.50
57564;DHT22;43400;45.926;6.724;2023-01-28T08:23:47;-1.20;94.50
57564;DHT22;43400;45.926;6.724;2023-01-28T08:26:19;-1.10;94.40
57564;DHT22;43400;45.926;6.724;2023-01-28T08:28:51;-1.10;94.40
57564;DHT22;43400;45.926;6.724;2023-01-28T08:31:23;-1.00;94.20
57564;DHT22;43400;45.926;6.724;2023-01-28T08:33:55;-1.00;93.90
57564;DHT22;43400;45.926;6.724;2023-01-28T08:36:27;-0.90;93.80
57564;DHT22;43400;45.926;6.724;2023-01-28T08:38:58;-0.80;93.30
57564;DHT22;43400;45.926;6.724;2023-01-28T08:41:30;-0.70;92.40
57564;DHT22;43400;45.926;6.724;2023-01-28T08:44:02;-0.70;92.10
57564;DHT22;43400;45.926;6.724;2023-01-28T08:46:34;-0.80;91.50
57564;DHT22;43400;45.926;6.724;2023-01-28T08:49:05;-0.80;91.30
57564;DHT22;43400;45.926;6.724;2023-01-28T08:51:37;-0.70;91.30
57564;DHT22;43400;45.926;6.724;2023-01-28T08:54:09;-0.60;91.20
57564;DHT22;43400;45.926;6.724;2023-01-28T08:56:40;-0.60;91.10
57564;DHT22;43400;45.926;6.724;2023-01-28T08:59:12;-0.50;91.20
57564;DHT22;43400;45.926;6.724;2023-01-28T09:01:44;-0.50;90.40
57564;DHT22;43400;45.926;6.724;2023-01-28T09:04:15;-0.40;90.50
57564;DHT22;43400;45.926;6.724;2023-01-28T09:06:47;-0.30;90.30
57564;DHT22;43400;45.926;6.724;2023-01-28T09:09:19;-0.20;90.10
57564;DHT22;43400;45.926;6.724;2023-01-28T09:11:50;-0.10;88.60
57564;DHT22;43400;45.926;6.724;2023-01-28T09:14:22;-0.10;86.90
57564;DHT22;43400;45.926;6.724;2023-01-28T09:16:53;0.00;86.00
57564;DHT22;43400;45.926;6.724;2023-01-28T09:19:25;0.10;86.40
57564;DHT22;43400;45.926;6.724;2023-01-28T09:21:57;0.20;86.60
57564;DHT22;43400;45.926;6.724;2023-01-28T09:24:29;0.30;85.80
57564;DHT22;43400;45.926;6.724;2023-01-28T09:27:00;0.40;85.40
57564;DHT22;43400;45.926;6.724;2023-01-28T09:29:36;0.50;83.60
57564;DHT22;43400;45.926;6.724;2023-01-28T09:32:07;0.50;82.90
57564;DHT22;43400;45.926;6.724;2023-01-28T09:34:39;0.60;83.90
57564;DHT22;43400;45.926;6.724;2023-01-28T09:37:11;0.60;84.10
57564;DHT22;43400;45.926;6.724;2023-01-28T09:39:43;0.80;84.30
57564;DHT22;43400;45.926;6.724;2023-01-28T09:42:24;1.00;82.00
57564;DHT22;43400;45.926;6.724;2023-01-28T09:45:14;0.90;81.60
57564;DHT22;43400;45.926;6.724;2023-01-28T09:47:58;0.90;81.30
57564;DHT22;43400;45.926;6.724;2023-01-28T09:50:39;1.00;80.80
57564;DHT22;43400;45.926;6.724;2023-01-28T09:53:23;1.10;80.70
57564;DHT22;43400;45.926;6.724;2023-01-28T09:56:08;1.20;80.30
57564;DHT22;43400;45.926;6.724;2023-01-28T09:58:42;1.30;79.60
57564;DHT22;43400;45.926;6.724;2023-01-28T10:01:40;1.40;79.30
57564;DHT22;43400;45.926;6.724;2023-01-28T10:07:53;1.50;78.80
57564;DHT22;43400;45.926;6.724;2023-01-28T10:16:28;1.70;78.00
57564;DHT22;43400;45.926;6.724;2023-01-28T10:19:21;1.80;77.30
57564;DHT22;43400;45.926;6.724;2023-01-28T10:22:39;1.80;76.70
57564;DHT22;43400;45.926;6.724;2023-01-28T10:25:25;1.80;76.10
57564;DHT22;43400;45.926;6.724;2023-01-28T10:28:00;1.80;75.90
57564;DHT22;43400;45.926;6.724;2023-01-28T10:30:34;1.70;75.10
57564;DHT22;43400;45.926;6.724;2023-01-28T10:33:38;1.70;75.00
57564;DHT22;43400;45.926;6.724;2023-01-28T10:36:09;1.80;75.60
57564;DHT22;43400;45.926;6.724;2023-01-28T10:38:41;1.90;75.00
57564;DHT22;43400;45.926;6.724;2023-01-28T10:41:20;1.80;75.90
57564;DHT22;43400;45.926;6.724;2023-01-28T10:43:52;1.90;75.80
57564;DHT22;43400;45.926;6.724;2023-01-28T10:46:31;2.10;74.50
57564;DHT22;43400;45.926;6.724;2023-01-28T10:49:13;2.30;74.50
57564;DHT22;43400;45.926;6.724;2023-01-28T10:51:45;2.30;73.40
57564;DHT22;43400;45.926;6.724;2023-01-28T10:54:22;2.30;73.10
57564;DHT22;43400;45.926;6.724;2023-01-28T10:56:58;2.30;72.50
57564;DHT22;43400;45.926;6.724;2023-01-28T10:59:33;2.20;72.10
57564;DHT22;43400;45.926;6.724;2023-01-28T11:02:31;2.30;72.20
57564;DHT22;43400;45.926;6.724;2023-01-28T11:05:24;2.30;71.90
57564;DHT22;43400;45.926;6.724;2023-01-28T11:10:42;2.00;71.50
57564;DHT22;43400;45.926;6.724;2023-01-28T11:13:20;1.80;71.90
57564;DHT22;43400;45.926;6.724;2023-01-28T11:16:04;1.70;70.70
57564;DHT22;43400;45.926;6.724;2023-01-28T11:19:09;1.70;71.30
57564;DHT22;43400;45.926;6.724;2023-01-28T11:21:37;1.70;70.90
57564;DHT22;43400;45.926;6.724;2023-01-28T11:24:21;1.70;71.40
57564;DHT22;43400;45.926;6.724;2023-01-28T11:26:55;1.90;71.30
57564;DHT22;43400;45.926;6.724;2023-01-28T11:29:30;1.90;71.70
57564;DHT22;43400;45.926;6.724;2023-01-28T11:32:03;2.00;70.60
57564;DHT22;43400;45.926;6.724;2023-01-28T11:34:35;2.10;70.90
57564;DHT22;43400;45.926;6.724;2023-01-28T11:37:13;2.40;70.80
57564;DHT22;43400;45.926;6.724;2023-01-28T11:39:45;2.60;70.30
57564;DHT22;43400;45.926;6.724;2023-01-28T11:42:20;2.90;69.70
57564;DHT22;43400;45.926;6.724;2023-01-28T11:44:53;2.80;69.40
57564;DHT22;43400;45.926;6.724;2023-01-28T11:47:39;2.80;70.60
57564;DHT22;43400;45.926;6.724;2023-01-28T12:04:22;3.40;68.10
57564;DHT22;43400;45.926;6.724;2023-01-28T12:12:32;3.10;67.60
57564;DHT22;43400;45.926;6.724;2023-01-28T12:26:37;3.60;61.80
57564;DHT22;43400;45.926;6.724;2023-01-28T12:29:34;3.60;62.40
57564;DHT22;43400;45.926;6.724;2023-01-28T12:35:05;3.70;60.50
57564;DHT22;43400;45.926;6.724;2023-01-28T12:37:52;3.70;59.90
57564;DHT22;43400;45.926;6.724;2023-01-28T12:44:10;3.80;59.30
57564;DHT22;43400;45.926;6.724;2023-01-28T12:47:06;3.80;60.40
57564;DHT22;43400;45.926;6.724;2023-01-28T12:49:52;3.80;61.20
57564;DHT22;43400;45.926;6.724;2023-01-28T12:52:29;3.90;60.60
57564;DHT22;43400;45.926;6.724;2023-01-28T12:57:59;3.90;60.90
57564;DHT22;43400;45.926;6.724;2023-01-28T13:00:33;3.90;59.70
57564;DHT22;43400;45.926;6.724;2023-01-28T13:03:13;3.80;60.00
57564;DHT22;43400;45.926;6.724;2023-01-28T13:05:54;3.80;61.70
57564;DHT22;43400;45.926;6.724;2023-01-28T13:08:29;3.70;59.40
57564;DHT22;43400;45.926;6.724;2023-01-28T13:11:02;4.00;60.80
57564;DHT22;43400;45.926;6.724;2023-01-28T13:13:39;4.00;61.50
57564;DHT22;43400;45.926;6.724;2023-01-28T13:16:12;4.20;61.50
57564;DHT22;43400;45.926;6.724;2023-01-28T13:18:45;4.40;59.80
57564;DHT22;43400;45.926;6.724;2023-01-28T13:32:00;4.60;59.60
57564;DHT22;43400;45.926;6.724;2023-01-28T13:34:35;4.50;57.90
57564;DHT22;43400;45.926;6.724;2023-01-28T13:43:01;4.60;57.50
57564;DHT22;43400;45.926;6.724;2023-01-28T13:45:33;4.70;56.40
57564;DHT22;43400;45.926;6.724;2023-01-28T13:51:34;4.70;57.30
57564;DHT22;43400;45.926;6.724;2023-01-28T13:54:16;4.80;56.40
57564;DHT22;43400;45.926;6.724;2023-01-28T13:57:04;4.80;56.70
57564;DHT22;43400;45.926;6.724;2023-01-28T14:15:12;6.80;54.00
57564;DHT22;43400;45.926;6.724;2023-01-28T14:17:52;7.40;54.30
57564;DHT22;43400;45.926;6.724;2023-01-28T14:20:32;8.60;51.30
57564;DHT22;43400;45.926;6.724;2023-01-28T14:23:05;9.30;50.80
57564;DHT22;43400;45.926;6.724;2023-01-28T14:29:13;12.00;46.60
57564;DHT22;43400;45.926;6.724;2023-01-28T14:31:47;13.00;44.70
57564;DHT22;43400;45.926;6.724;2023-01-28T14:34:30;13.00;44.30
57564;DHT22;43400;45.926;6.724;2023-01-28T14:37:08;13.20;42.80
57564;DHT22;43400;45.926;6.724;2023-01-28T14:39:47;13.20;42.30
57564;DHT22;43400;45.926;6.724;2023-01-28T14:42:22;13.40;41.80
57564;DHT22;43400;45.926;6.724;2023-01-28T14:48:25;13.30;41.50
57564;DHT22;43400;45.926;6.724;2023-01-28T14:56:43;12.30;41.40
57564;DHT22;43400;45.926;6.724;2023-01-28T14:59:33;11.90;41.90
57564;DHT22;43400;45.926;6.724;2023-01-28T15:02:23;11.60;43.20
57564;DHT22;43400;45.926;6.724;2023-01-28T15:05:10;11.40;43.30
57564;DHT22;43400;45.926;6.724;2023-01-28T15:07:47;10.60;44.30
57564;DHT22;43400;45.926;6.724;2023-01-28T15:10:27;10.20;45.40
57564;DHT22;43400;45.926;6.724;2023-01-28T15:13:06;10.00;46.50
57564;DHT22;43400;45.926;6.724;2023-01-28T15:15:40;9.50;47.10
57564;DHT22;43400;45.926;6.724;2023-01-28T15:18:20;9.70;48.10
57564;DHT22;43400;45.926;6.724;2023-01-28T15:20:56;9.40;47.40
57564;DHT22;43400;45.926;6.724;2023-01-28T15:23:37;9.10;46.50
57564;DHT22;43400;45.926;6.724;2023-01-28T15:26:24;8.80;48.40
57564;DHT22;43400;45.926;6.724;2023-01-28T15:28:57;8.60;48.80
57564;DHT22;43400;45.926;6.724;2023-01-28T15:31:31;8.90;48.80
57564;DHT22;43400;45.926;6.724;2023-01-28T15:34:15;8.90;48.80
57564;DHT22;43400;45.926;6.724;2023-01-28T15:36:49;8.80;49.30
57564;DHT22;43400;45.926;6.724;2023-01-28T15:39:22;8.80;49.50
57564;DHT22;43400;45.926;6.724;2023-01-28T15:41:56;8.40;49.80
57564;DHT22;43400;45.926;6.724;2023-01-28T15:47:15;6.80;53.30
57564;DHT22;43400;45.926;6.724;2023-01-28T15:49:50;6.50;54.60
57564;DHT22;43400;45.926;6.724;2023-01-28T15:52:36;5.70;56.00
57564;DHT22;43400;45.926;6.724;2023-01-28T15:55:45;5.20;57.30
57564;DHT22;43400;45.926;6.724;2023-01-28T15:58:28;5.00;58.80
57564;DHT22;43400;45.926;6.724;2023-01-28T16:03:43;4.10;61.10
57564;DHT22;43400;45.926;6.724;2023-01-28T16:06:20;3.70;62.70
57564;DHT22;43400;45.926;6.724;2023-01-28T16:09:00;3.30;64.50
57564;DHT22;43400;45.926;6.724;2023-01-28T16:11:36;3.00;66.10
57564;DHT22;43400;45.926;6.724;2023-01-28T16:14:28;2.80;67.00
57564;DHT22;43400;45.926;6.724;2023-01-28T16:17:00;2.80;67.90
57564;DHT22;43400;45.926;6.724;2023-01-28T16:19:42;2.70;68.50
57564;DHT22;43400;45.926;6.724;2023-01-28T16:22:35;2.50;68.80
57564;DHT22;43400;45.926;6.724;2023-01-28T16:27:52;2.20;70.40
57564;DHT22;43400;45.926;6.724;2023-01-28T16:30:24;2.20;71.00
57564;DHT22;43400;45.926;6.724;2023-01-28T16:32:56;2.20;71.70
57564;DHT22;43400;45.926;6.724;2023-01-28T16:35:28;2.10;72.70
57564;DHT22;43400;45.926;6.724;2023-01-28T16:38:00;2.10;72.40
57564;DHT22;43400;45.926;6.724;2023-01-28T16:40:31;2.10;74.10
57564;DHT22;43400;45.926;6.724;2023-01-28T16:43:03;2.10;73.40
57564;DHT22;43400;45.926;6.724;2023-01-28T16:45:35;2.10;74.00
57564;DHT22;43400;45.926;6.724;2023-01-28T16:48:06;2.00;74.70
57564;DHT22;43400;45.926;6.724;2023-01-28T16:50:42;1.90;73.60
57564;DHT22;43400;45.926;6.724;2023-01-28T16:53:24;1.80;73.80
57564;DHT22;43400;45.926;6.724;2023-01-28T16:55:56;1.80;75.00
57564;DHT22;43400;45.926;6.724;2023-01-28T16:58:29;1.70;75.70
57564;DHT22;43400;45.926;6.724;2023-01-28T17:01:01;1.70;75.20
57564;DHT22;43400;45.926;6.724;2023-01-28T17:03:32;1.70;74.50
57564;DHT22;43400;45.926;6.724;2023-01-28T17:06:04;1.80;75.20
57564;DHT22;43400;45.926;6.724;2023-01-28T17:08:36;1.80;75.80
57564;DHT22;43400;45.926;6.724;2023-01-28T17:11:08;1.80;75.70
57564;DHT22;43400;45.926;6.724;2023-01-28T17:13:40;1.80;76.20
57564;DHT22;43400;45.926;6.724;2023-01-28T17:16:12;1.80;76.60
57564;DHT22;43400;45.926;6.724;2023-01-28T17:18:43;1.70;77.80
57564;DHT22;43400;45.926;6.724;2023-01-28T17:21:15;1.70;77.70
57564;DHT22;43400;45.926;6.724;2023-01-28T17:23:47;1.70;78.10
57564;DHT22;43400;45.926;6.724;2023-01-28T17:26:18;1.70;79.00
57564;DHT22;43400;45.926;6.724;2023-01-28T17:28:51;1.60;79.30
57564;DHT22;43400;45.926;6.724;2023-01-28T17:31:23;1.60;78.90
57564;DHT22;43400;45.926;6.724;2023-01-28T17:33:56;1.50;80.10
57564;DHT22;43400;45.926;6.724;2023-01-28T17:36:28;1.50;80.40
57564;DHT22;43400;45.926;6.724;2023-01-28T17:39:00;1.60;80.50
57564;DHT22;43400;45.926;6.724;2023-01-28T17:41:32;1.50;80.60
57564;DHT22;43400;45.926;6.724;2023-01-28T17:44:04;1.50;80.30
57564;DHT22;43400;45.926;6.724;2023-01-28T17:46:36;1.50;80.50
57564;DHT22;43400;45.926;6.724;2023-01-28T17:49:07;1.40;79.80
57564;DHT22;43400;45.926;6.724;2023-01-28T17:51:39;1.50;79.30
57564;DHT22;43400;45.926;6.724;2023-01-28T17:54:11;1.50;78.80
57564;DHT22;43400;45.926;6.724;2023-01-28T17:56:43;1.50;79.20
57564;DHT22;43400;45.926;6.724;2023-01-28T17:59:14;1.50;80.00
57564;DHT22;43400;45.926;6.724;2023-01-28T18:01:46;1.60;79.50
57564;DHT22;43400;45.926;6.724;2023-01-28T18:04:18;1.50;80.50
57564;DHT22;43400;45.926;6.724;2023-01-28T18:06:50;1.50;80.40
57564;DHT22;43400;45.926;6.724;2023-01-28T18:09:21;1.40;80.70
57564;DHT22;43400;45.926;6.724;2023-01-28T18:11:53;1.40;81.10
57564;DHT22;43400;45.926;6.724;2023-01-28T18:14:25;1.40;81.20
57564;DHT22;43400;45.926;6.724;2023-01-28T18:16:57;1.20;81.30
57564;DHT22;43400;45.926;6.724;2023-01-28T18:19:28;1.20;81.80
57564;DHT22;43400;45.926;6.724;2023-01-28T18:22:00;1.10;83.50
57564;DHT22;43400;45.926;6.724;2023-01-28T18:24:32;1.00;84.20
57564;DHT22;43400;45.926;6.724;2023-01-28T18:27:03;1.00;83.80
57564;DHT22;43400;45.926;6.724;2023-01-28T18:29:35;1.00;84.40
57564;DHT22;43400;45.926;6.724;2023-01-28T18:32:07;1.10;84.60
57564;DHT22;43400;45.926;6.724;2023-01-28T18:34:38;1.20;83.90
57564;DHT22;43400;45.926;6.724;2023-01-28T18:37:10;1.20;83.60